Hamilton, OH (45011)

12:51 AM EST on February 09, 2016 (GMT -0500)
APRSWXNET | | Change Station
CLOSE
Current Station
Personal Weather Station
Location: Hamilton, OH
Elevation: 587 ft
Nearby Weather Stations
Active Advisory: Winter Weather Advisory Active Notice: Local Storm Report

Elev 587 ft 39.41 °N, 84.49 °W | Updated 26 minutes ago

Snow
Snow
22 °F
Feels Like 14 °F
N
6
Wind Variable Wind from South
Gusts 14.0 mph

Today
High -- | Low -- °F
--% Chance of Precip.
Yesterday
High -- | Low -- °F
Precip. -- in
Pressure 29.74 in
Visibility 3.0 miles
Clouds Overcast 3400 ft
Windchill 14 °F
Dew Point 20 °F
Humidity 93%
Rainfall in
Snow Depth Not available.
7:37 AM 6:07 PM
New Moon, 1% visible
SPECI KHAO 090537Z AUTO 27009KT 3SM -SN BR OVC034 M05/M07 A2974 RMK AO2 P0000 T10501067
Pressure 29.74 in
Visibility 3.0 miles
Clouds Overcast 3400 ft
Windchill 14 °F
Dew Point 20 °F
Humidity 93%
Rainfall in
Snow Depth Not available.
7:37 AM 6:07 PM
New Moon, 1% visible
SPECI KHAO 090537Z AUTO 27009KT 3SM -SN BR OVC034 M05/M07 A2974 RMK AO2 P0000 T10501067

10-Day Weather Forecast

Almanac

Astronomy

Feb. 09, 2016 Rise Set
Actual Time
Civil Twilight
Nautical Twilight
Astronomical Twilight
Moon
Length of Visible Light
Length of Day
Tomorrow will be .
, % of the Moon is Illuminated

Today's Extremes

State Highs State Lows

Community

WunderPhotos

Upload Photos

1,891,566 photos uploaded!

WunderBlog® & News

Nearby

Air Quality

  Air Quality AQ Index Pollutant
Not available.

Snow Depth

Station Depth Elevation

Earthquake Activity

City Distance Mag. Time & Date
Minimum magnitude displayed is 2.5.

Coastal Water Temperatures

Place Temperature

Stations

Nearby Weather Stations

Station Location Temp. Windchill Dew Point Humidity Wind Precip. Elev Updated Type
                   

Watches & Warnings

Winter Weather Advisory
Issued: 10:40 PM EST Feb. 8, 2016 – National Weather Service

... Winter Weather Advisory remains in effect until 6 am EST
Wednesday...

* hazard types... snow.

* Accumulations... snow accumulation of 3 to 5 inches.

* Timing... snow will occur through the night into Tuesday morning
with accumulations of 1 to 4 inches. Occasional snow showers
will then continue through Tuesday night with another inch or
two possible.

* Impacts... travel difficulties are expected due to reduced
visibilities and snow accumulations.

Precautionary/preparedness actions...

Remember... a Winter Weather Advisory for snow means that periods
of snow will cause primarily travel difficulties. Be prepared for
snow covered roads and limited visibilities... and use caution
while driving. Stay tuned to NOAA Weather Radio or your favorite
source of information for the latest updates. Additional details
can also be found at www.Weather.Gov/iln as well as on our
facebook and twitter pages.